createdAt,value
2018-01-06T00:00:41.223Z,18.20
2018-01-06T00:03:08.970Z,18.60
2018-01-06T00:05:36.684Z,16.40
2018-01-06T00:08:04.184Z,16.17
2018-01-06T00:10:31.687Z,18.57
2018-01-06T00:12:59.185Z,16.93
2018-01-06T00:15:26.882Z,16.70
2018-01-06T00:17:54.463Z,19.57
2018-01-06T00:20:22.361Z,17.50
2018-01-06T00:22:50.534Z,17.87
2018-01-06T00:25:18.558Z,16.27
2018-01-06T00:27:47.003Z,16.90
2018-01-06T00:30:17.344Z,18.47
2018-01-06T00:32:44.882Z,17.20
2018-01-06T00:35:12.376Z,21.30
2018-01-06T00:37:41.198Z,16.10
2018-01-06T00:40:09.247Z,16.93
2018-01-06T00:42:36.757Z,16.77
2018-01-06T00:45:04.831Z,14.67
2018-01-06T00:47:33.331Z,13.40
2018-01-06T00:50:00.896Z,14.63
2018-01-06T00:52:29.208Z,16.70
2018-01-06T00:54:57.811Z,15.83
2018-01-06T00:57:25.735Z,15.30
2018-01-06T00:59:54.509Z,15.03
2018-01-06T01:02:22.064Z,16.40
2018-01-06T01:04:50.533Z,17.07
2018-01-06T01:07:18.048Z,16.70
2018-01-06T01:09:46.584Z,16.07
2018-01-06T01:12:14.117Z,19.70
2018-01-06T01:14:41.780Z,15.80
2018-01-06T01:17:09.288Z,18.73
2018-01-06T01:19:36.796Z,17.80
2018-01-06T01:22:04.287Z,17.57
2018-01-06T01:24:32.860Z,17.30
2018-01-06T01:27:00.351Z,19.47
2018-01-06T01:29:28.110Z,19.37
2018-01-06T01:31:55.610Z,19.50
2018-01-06T01:34:23.295Z,19.10
2018-01-06T01:36:51.059Z,21.90
2018-01-06T01:39:18.828Z,18.83
2018-01-06T01:41:46.328Z,11.17
2018-01-06T01:44:14.659Z,22.10
2018-01-06T01:46:42.423Z,20.90
2018-01-06T01:49:09.927Z,22.50
2018-01-06T01:51:37.431Z,20.13
2018-01-06T01:54:04.931Z,22.40
2018-01-06T01:56:32.863Z,19.13
2018-01-06T01:59:00.628Z,21.83
2018-01-06T02:01:28.114Z,21.73
2018-01-06T02:03:55.692Z,20.87
2018-01-06T02:06:23.973Z,20.80
2018-01-06T02:08:51.675Z,21.50
2018-01-06T02:11:19.449Z,20.00
2018-01-06T02:13:47.055Z,18.90
2018-01-06T02:16:14.664Z,13.63
2018-01-06T02:18:42.170Z,15.37
2018-01-06T02:21:10.000Z,13.90
2018-01-06T02:23:37.747Z,16.73
2018-01-06T02:26:05.807Z,18.87
2018-01-06T02:28:33.476Z,17.73
2018-01-06T02:31:00.991Z,17.00
2018-01-06T02:33:28.784Z,15.53
2018-01-06T02:35:56.296Z,16.63
2018-01-06T02:38:24.840Z,16.43
2018-01-06T02:40:52.989Z,16.30
2018-01-06T02:43:20.674Z,14.40
2018-01-06T02:45:48.176Z,16.00
2018-01-06T02:48:15.675Z,14.07
2018-01-06T02:50:44.580Z,17.70
2018-01-06T02:53:12.472Z,15.60
2018-01-06T02:55:40.828Z,17.70
2018-01-06T02:58:08.587Z,16.87
2018-01-06T03:00:36.247Z,15.37
2018-01-06T03:03:03.753Z,12.50
2018-01-06T03:05:31.250Z,16.60
2018-01-06T03:07:58.927Z,16.50
2018-01-06T03:10:26.430Z,17.10
2018-01-06T03:12:54.690Z,17.07
2018-01-06T03:15:22.215Z,14.63
2018-01-06T03:17:49.833Z,16.13
2018-01-06T03:20:18.102Z,17.97
2018-01-06T03:22:46.000Z,17.43
2018-01-06T03:25:14.476Z,18.83
2018-01-06T03:27:42.182Z,19.87
2018-01-06T03:30:09.733Z,17.23
2018-01-06T03:32:37.219Z,17.60
2018-01-06T03:35:05.131Z,16.50
2018-01-06T03:37:33.623Z,16.67
2018-01-06T03:40:01.120Z,15.07
2018-01-06T03:42:29.436Z,16.47
2018-01-06T03:44:57.534Z,16.67
2018-01-06T03:47:25.035Z,16.50
2018-01-06T03:49:52.722Z,17.43
2018-01-06T03:52:20.520Z,19.33
2018-01-06T03:54:48.828Z,16.37
2018-01-06T03:57:16.336Z,17.07
2018-01-06T03:59:43.835Z,16.77
2018-01-06T04:02:12.105Z,17.13
2018-01-06T04:04:39.640Z,15.93
2018-01-06T04:07:07.269Z,15.63
2018-01-06T04:09:34.860Z,16.63
2018-01-06T04:12:02.909Z,16.17
2018-01-06T04:14:31.271Z,16.90
2018-01-06T04:16:59.288Z,15.60
2018-01-06T04:19:26.843Z,15.60
2018-01-06T04:21:54.736Z,16.63
2018-01-06T04:24:23.208Z,16.70
2018-01-06T04:26:51.495Z,17.20
2018-01-06T04:29:18.979Z,17.80
2018-01-06T04:31:46.551Z,8.37
2018-01-06T04:34:14.051Z,17.53
2018-01-06T04:36:43.115Z,16.27
2018-01-06T04:39:11.355Z,14.63
2018-01-06T04:41:39.268Z,16.47
2018-01-06T04:44:07.155Z,15.27
2018-01-06T04:46:35.615Z,16.60
2018-01-06T04:49:03.119Z,15.70
2018-01-06T04:51:31.017Z,19.07
2018-01-06T04:53:58.599Z,18.33
2018-01-06T04:56:26.663Z,18.50
2018-01-06T04:58:54.934Z,17.00
2018-01-06T05:01:22.840Z,17.90
2018-01-06T05:03:50.458Z,19.17
2018-01-06T05:06:18.031Z,15.43
2018-01-06T05:08:46.095Z,18.37
2018-01-06T05:11:14.495Z,18.30
2018-01-06T05:13:43.510Z,16.53
2018-01-06T05:16:11.241Z,16.60
2018-01-06T05:18:38.748Z,16.17
2018-01-06T05:21:06.410Z,15.70
2018-01-06T05:23:33.919Z,16.97
2018-01-06T05:26:01.983Z,15.80
2018-01-06T05:28:29.493Z,16.70
2018-01-06T05:30:56.996Z,15.40
2018-01-06T05:33:24.536Z,13.97
2018-01-06T05:35:52.035Z,15.03
2018-01-06T05:38:19.765Z,16.53
2018-01-06T05:40:47.331Z,13.17
2018-01-06T05:43:15.227Z,13.10
2018-01-06T05:45:42.872Z,14.13
2018-01-06T05:48:10.885Z,14.53
2018-01-06T05:50:39.165Z,15.77
2018-01-06T05:53:07.436Z,16.03
2018-01-06T05:55:34.935Z,14.07
2018-01-06T05:58:02.440Z,15.47
2018-01-06T06:00:30.726Z,14.90
2018-01-06T06:02:58.435Z,16.80
2018-01-06T06:05:25.959Z,14.90
2018-01-06T06:07:53.555Z,15.50
2018-01-06T06:10:21.150Z,17.63
2018-01-06T06:12:48.884Z,16.73
2018-01-06T06:15:16.771Z,16.70
2018-01-06T06:17:44.424Z,18.83
2018-01-06T06:20:11.916Z,15.60
2018-01-06T06:22:39.628Z,17.10
2018-01-06T06:25:07.431Z,15.40
2018-01-06T06:27:35.060Z,16.77
2018-01-06T06:30:02.955Z,16.73
2018-01-06T06:32:30.464Z,16.93
2018-01-06T06:34:57.963Z,16.67
2018-01-06T06:37:26.331Z,18.70
2018-01-06T06:39:53.838Z,18.60
2018-01-06T06:42:21.400Z,15.60
2018-01-06T06:44:48.891Z,18.27
2018-01-06T06:47:16.439Z,16.93
2018-01-06T06:49:44.068Z,20.87
2018-01-06T06:52:11.571Z,19.47
2018-01-06T06:54:39.323Z,19.43
2018-01-06T06:57:07.234Z,20.30
2018-01-06T06:59:35.520Z,18.63
2018-01-06T07:02:03.023Z,20.10
2018-01-06T07:04:30.683Z,16.87
2018-01-06T07:06:58.452Z,17.23
2018-01-06T07:09:26.214Z,17.20
2018-01-06T07:11:53.721Z,15.27
2018-01-06T07:14:22.444Z,16.03
2018-01-06T07:16:50.387Z,16.70
2018-01-06T07:19:17.890Z,17.33
2018-01-06T07:21:45.515Z,20.07
2018-01-06T07:24:13.119Z,15.57
2018-01-06T07:26:40.864Z,19.27
2018-01-06T07:29:08.748Z,15.10
2018-01-06T07:31:36.350Z,16.03
2018-01-06T07:34:04.375Z,18.02
2018-01-06T07:36:33.094Z,15.80
2018-01-06T07:39:00.599Z,18.97
2018-01-06T07:41:28.127Z,14.40
2018-01-06T07:43:55.800Z,16.13
2018-01-06T07:46:23.510Z,14.80
2018-01-06T07:48:51.019Z,16.73
2018-01-06T07:51:18.519Z,15.50
2018-01-06T07:53:46.293Z,14.00
2018-01-06T07:56:13.775Z,15.97
2018-01-06T07:58:41.480Z,12.67
2018-01-06T08:01:09.210Z,15.80
2018-01-06T08:03:36.712Z,14.70
2018-01-06T08:06:04.242Z,13.80
2018-01-06T08:08:32.536Z,11.83
2018-01-06T08:11:00.305Z,12.57
2018-01-06T08:13:28.068Z,13.90
2018-01-06T08:15:55.567Z,14.90
2018-01-06T08:18:24.203Z,14.30
2018-01-06T08:20:51.968Z,15.43
2018-01-06T08:23:20.044Z,14.37
2018-01-06T08:25:47.798Z,14.50
2018-01-06T08:28:15.307Z,15.27
2018-01-06T08:30:43.019Z,12.87
2018-01-06T08:33:11.051Z,15.13
2018-01-06T08:35:38.971Z,14.93
2018-01-06T08:38:06.930Z,15.23
2018-01-06T08:40:34.442Z,13.40
2018-01-06T08:43:02.160Z,11.90
2018-01-06T08:45:30.179Z,15.27
2018-01-06T08:47:58.985Z,17.10
2018-01-06T08:50:26.667Z,17.90
2018-01-06T08:52:54.436Z,16.10
2018-01-06T08:55:22.172Z,16.70
2018-01-06T08:57:49.955Z,17.93
2018-01-06T09:00:17.447Z,18.83
2018-01-06T09:02:45.188Z,17.40
2018-01-06T09:05:12.675Z,19.73
2018-01-06T09:07:40.495Z,15.47
2018-01-06T09:10:08.784Z,17.10
2018-01-06T09:12:37.459Z,19.57
2018-01-06T09:15:05.336Z,17.00
2018-01-06T09:17:32.995Z,19.90
2018-01-06T09:20:00.505Z,21.53
2018-01-06T09:22:28.209Z,18.80
2018-01-06T09:24:55.979Z,17.10
2018-01-06T09:27:23.736Z,19.30
2018-01-06T09:29:51.627Z,20.77
2018-01-06T09:32:19.140Z,22.60
2018-01-06T09:34:46.700Z,20.57
2018-01-06T09:37:14.217Z,21.10
2018-01-06T09:39:41.847Z,22.77
2018-01-06T09:42:09.390Z,21.13
2018-01-06T09:44:36.907Z,22.50
2018-01-06T09:47:05.105Z,22.97
2018-01-06T09:49:33.670Z,22.60
2018-01-06T09:52:01.348Z,22.47
2018-01-06T09:54:29.650Z,24.50
2018-01-06T09:56:57.524Z,22.30
2018-01-06T09:59:25.036Z,22.27
2018-01-06T10:01:52.539Z,18.90
2018-01-06T10:04:20.055Z,23.30
2018-01-06T10:06:47.648Z,23.73
2018-01-06T10:09:15.422Z,23.77
2018-01-06T10:11:42.925Z,25.23
2018-01-06T10:14:10.432Z,23.50
2018-01-06T10:16:38.104Z,29.30
2018-01-06T10:19:05.952Z,23.90
2018-01-06T10:21:33.435Z,25.50
2018-01-06T10:24:01.068Z,23.33
2018-01-06T10:26:28.572Z,22.10
2018-01-06T10:28:56.296Z,24.53
2018-01-06T10:31:23.791Z,24.37
2018-01-06T10:33:51.704Z,25.20
2018-01-06T10:36:19.731Z,24.13
2018-01-06T10:38:47.995Z,23.67
2018-01-06T10:41:15.696Z,26.47
2018-01-06T10:43:43.500Z,24.93
2018-01-06T10:46:11.251Z,24.50
2018-01-06T10:48:38.751Z,25.67
2018-01-06T10:51:06.471Z,25.80
2018-01-06T10:53:34.243Z,26.77
2018-01-06T10:56:02.003Z,25.63
2018-01-06T10:58:29.764Z,24.27
2018-01-06T11:01:03.131Z,24.00
2018-01-06T11:03:30.627Z,25.13
2018-01-06T11:05:58.275Z,24.83
2018-01-06T11:08:25.779Z,26.30
2018-01-06T11:10:53.287Z,24.57
2018-01-06T11:13:20.947Z,23.80
2018-01-06T11:15:49.019Z,22.90
2018-01-06T11:18:16.784Z,24.60
2018-01-06T11:20:44.308Z,25.90
2018-01-06T11:23:12.209Z,26.47
2018-01-06T11:25:39.727Z,24.40
2018-01-06T11:28:07.223Z,20.67
2018-01-06T11:30:34.996Z,23.87
2018-01-06T11:33:02.751Z,23.00
2018-01-06T11:35:30.517Z,22.87
2018-01-06T11:37:58.409Z,21.53
2018-01-06T11:40:26.015Z,23.03
2018-01-06T11:42:54.814Z,20.50
2018-01-06T11:45:22.490Z,21.37
2018-01-06T11:47:50.203Z,20.53
2018-01-06T11:50:17.715Z,21.03
2018-01-06T11:52:45.471Z,22.00
2018-01-06T11:55:13.235Z,21.57
2018-01-06T11:57:40.754Z,20.90
2018-01-06T12:00:08.252Z,20.47
2018-01-06T12:02:35.891Z,21.03
2018-01-06T12:05:03.394Z,20.00
2018-01-06T12:07:31.301Z,20.60
2018-01-06T12:09:58.859Z,20.43
2018-01-06T12:12:26.367Z,18.33
2018-01-06T12:14:53.879Z,19.03
2018-01-06T12:17:22.745Z,17.03
2018-01-06T12:19:50.561Z,16.50
2018-01-06T12:22:18.639Z,13.23
2018-01-06T12:24:46.405Z,13.33
2018-01-06T12:27:14.302Z,13.80
2018-01-06T12:29:42.873Z,36.30
2018-01-06T12:32:10.614Z,6.90
2018-01-06T12:34:38.951Z,6.93
2018-01-06T12:37:06.451Z,6.20
2018-01-06T12:39:34.478Z,7.43
2018-01-06T12:42:02.590Z,7.47
2018-01-06T12:44:30.352Z,5.90
2018-01-06T12:46:58.615Z,6.00
2018-01-06T12:49:26.214Z,5.07
2018-01-06T12:51:55.487Z,4.97
2018-01-06T12:54:24.150Z,6.17
2018-01-06T12:56:51.639Z,5.70
2018-01-06T12:59:19.157Z,5.40
2018-01-06T13:01:46.644Z,7.17
2018-01-06T13:04:14.303Z,5.20
2018-01-06T13:06:42.230Z,5.37
2018-01-06T13:09:10.751Z,4.80
2018-01-06T13:11:38.631Z,4.73
2018-01-06T13:14:06.174Z,4.30
2018-01-06T13:16:33.676Z,4.93
2018-01-06T13:19:02.676Z,3.70
2018-01-06T13:21:30.187Z,3.90
2018-01-06T13:23:57.706Z,4.30
2018-01-06T13:26:25.413Z,4.30
2018-01-06T13:28:53.468Z,4.30
2018-01-06T13:31:21.843Z,4.20
2018-01-06T13:33:49.335Z,5.03
2018-01-06T13:36:16.955Z,4.70
2018-01-06T13:38:44.535Z,5.30
2018-01-06T13:41:12.050Z,5.30
2018-01-06T13:43:39.752Z,6.07
2018-01-06T13:46:07.320Z,6.00
2018-01-06T13:48:35.568Z,6.90
2018-01-06T13:51:03.348Z,6.37
2018-01-06T13:53:31.397Z,7.00
2018-01-06T13:55:58.896Z,5.83
2018-01-06T13:58:26.405Z,6.20
2018-01-06T14:00:53.914Z,5.90
2018-01-06T14:03:21.785Z,7.27
2018-01-06T14:05:49.281Z,6.53
2018-01-06T14:08:16.776Z,7.10
2018-01-06T14:10:45.053Z,7.83
2018-01-06T14:13:13.312Z,6.90
2018-01-06T14:15:40.820Z,9.53
2018-01-06T14:18:08.450Z,8.00
2018-01-06T14:20:35.951Z,8.30
2018-01-06T14:23:03.618Z,6.20
2018-01-06T14:25:31.238Z,5.40
2018-01-06T14:27:58.732Z,6.33
2018-01-06T14:30:26.998Z,7.00
2018-01-06T14:32:54.716Z,6.30
2018-01-06T14:35:22.480Z,6.90
2018-01-06T14:37:49.975Z,6.13
2018-01-06T14:40:19.164Z,5.30
2018-01-06T14:42:47.066Z,7.00
2018-01-06T14:45:15.071Z,4.90
2018-01-06T14:47:42.574Z,7.73
2018-01-06T14:50:10.888Z,5.77
2018-01-06T14:52:38.379Z,4.30
2018-01-06T14:55:05.882Z,5.10
2018-01-06T14:57:33.391Z,6.03
2018-01-06T15:00:01.053Z,6.30
2018-01-06T15:02:28.560Z,5.83
2018-01-06T15:04:56.821Z,8.10
2018-01-06T15:07:24.356Z,4.57
2018-01-06T15:09:51.850Z,8.20
2018-01-06T15:12:19.358Z,8.53
2018-01-06T15:14:47.325Z,9.50
2018-01-06T15:17:14.834Z,7.80
2018-01-06T15:19:42.347Z,11.80
2018-01-06T15:22:09.986Z,9.87
2018-01-06T15:24:37.480Z,8.17
2018-01-06T15:27:04.992Z,4.03
2018-01-06T15:29:33.180Z,5.37
2018-01-06T15:32:00.744Z,4.77
2018-01-06T15:34:28.876Z,4.37
2018-01-06T15:36:56.571Z,4.13
2018-01-06T15:39:24.077Z,4.90
2018-01-06T15:41:52.335Z,3.70
2018-01-06T15:44:20.706Z,3.83
2018-01-06T15:46:48.884Z,7.67
2018-01-06T15:49:16.905Z,11.67
2018-01-06T15:51:44.396Z,8.90
2018-01-06T15:54:11.890Z,10.33
2018-01-06T15:56:39.568Z,7.43
2018-01-06T15:59:07.075Z,7.40
2018-01-06T16:01:34.779Z,7.60
2018-01-06T16:04:02.296Z,6.20
2018-01-06T16:06:30.180Z,7.30
2018-01-06T16:08:58.446Z,6.83
2018-01-06T16:11:26.191Z,6.60
2018-01-06T16:13:54.093Z,7.40
2018-01-06T16:16:22.355Z,7.27
2018-01-06T16:18:50.691Z,5.93
2018-01-06T16:21:18.195Z,6.80
2018-01-06T16:23:45.695Z,5.10
2018-01-06T16:26:14.520Z,5.23
2018-01-06T16:28:42.067Z,4.30
2018-01-06T16:31:09.571Z,6.07
2018-01-06T16:33:37.084Z,6.40
2018-01-06T16:36:05.287Z,5.57
2018-01-06T16:38:33.463Z,5.70
2018-01-06T16:41:00.963Z,7.03
2018-01-06T16:43:28.648Z,4.47
2018-01-06T16:45:57.030Z,5.27
2018-01-06T16:48:24.519Z,5.07
2018-01-06T16:50:52.864Z,6.13
2018-01-06T16:53:20.768Z,4.20
2018-01-06T16:55:49.115Z,4.30
2018-01-06T16:58:17.019Z,5.40
2018-01-06T17:00:45.428Z,5.90
2018-01-06T17:03:12.920Z,5.47
2018-01-06T17:05:40.671Z,5.50
2018-01-06T17:08:08.443Z,5.83
2018-01-06T17:10:36.199Z,4.90
2018-01-06T17:13:03.969Z,6.87
2018-01-06T17:15:31.583Z,4.30
2018-01-06T17:17:59.096Z,4.77
2018-01-06T17:20:26.588Z,5.53
2018-01-06T17:22:54.097Z,4.87
2018-01-06T17:25:21.592Z,5.33
2018-01-06T17:27:49.517Z,5.90
2018-01-06T17:30:17.009Z,5.50
2018-01-06T17:32:44.512Z,4.97
2018-01-06T17:35:12.010Z,4.70
2018-01-06T17:37:39.630Z,5.33
2018-01-06T17:40:08.096Z,3.97
2018-01-06T17:42:35.811Z,3.70
2018-01-06T17:45:04.279Z,3.33
2018-01-06T17:47:31.790Z,3.90
2018-01-06T17:50:00.030Z,4.70
2018-01-06T17:52:27.564Z,3.90
2018-01-06T17:54:55.844Z,4.70
2018-01-06T17:57:23.396Z,3.53
2018-01-06T17:59:50.920Z,12.90
2018-01-06T18:02:19.195Z,4.27
2018-01-06T18:04:47.724Z,3.33
2018-01-06T18:07:15.383Z,3.10
2018-01-06T18:09:44.203Z,3.27
2018-01-06T18:12:12.469Z,4.50
2018-01-06T18:14:40.209Z,7.17
2018-01-06T18:17:07.703Z,3.70
2018-01-06T18:19:35.707Z,6.00
2018-01-06T18:22:03.203Z,5.10
2018-01-06T18:24:31.647Z,3.30
2018-01-06T18:26:59.140Z,5.20
2018-01-06T18:29:27.040Z,4.50
2018-01-06T18:31:54.580Z,4.50
2018-01-06T18:34:22.082Z,4.87
2018-01-06T18:36:50.344Z,4.23
2018-01-06T18:39:17.860Z,4.87
2018-01-06T18:41:46.219Z,5.63
2018-01-06T18:44:13.726Z,5.10
2018-01-06T18:46:41.224Z,10.60
2018-01-06T18:49:09.235Z,9.10
2018-01-06T18:51:36.974Z,5.37
2018-01-06T18:54:05.234Z,4.97
2018-01-06T18:56:32.758Z,5.27
2018-01-06T18:59:00.267Z,8.20
2018-01-06T19:01:28.285Z,4.70
2018-01-06T19:03:56.233Z,4.97
2018-01-06T19:06:24.687Z,5.40
2018-01-06T19:08:52.948Z,5.03
2018-01-06T19:11:20.584Z,4.53
2018-01-06T19:13:48.078Z,4.30
2018-01-06T19:16:15.686Z,5.33
2018-01-06T19:18:43.581Z,11.53
2018-01-06T19:21:11.480Z,8.03
2018-01-06T19:23:39.386Z,6.70
2018-01-06T19:26:06.887Z,8.30
2018-01-06T19:28:34.383Z,6.27
2018-01-06T19:31:01.899Z,6.07
2018-01-06T19:33:29.871Z,5.70
2018-01-06T19:35:57.935Z,5.30
2018-01-06T19:38:25.855Z,5.10
2018-01-06T19:40:54.119Z,5.17
2018-01-06T19:43:22.153Z,4.77
2018-01-06T19:45:50.220Z,5.10
2018-01-06T19:48:17.716Z,5.10
2018-01-06T19:50:45.428Z,5.00
2018-01-06T19:53:12.931Z,5.13
2018-01-06T19:55:40.659Z,5.30
2018-01-06T19:58:08.152Z,5.90
2018-01-06T20:00:35.667Z,6.63
2018-01-06T20:03:03.633Z,6.37
2018-01-06T20:05:31.404Z,5.40
2018-01-06T20:07:58.899Z,6.10
2018-01-06T20:10:26.623Z,5.40
2018-01-06T20:12:54.635Z,6.03
2018-01-06T20:15:22.151Z,7.20
2018-01-06T20:17:49.661Z,7.33
2018-01-06T20:20:17.371Z,15.33
2018-01-06T20:22:45.147Z,8.07
2018-01-06T20:25:12.900Z,5.97
2018-01-06T20:27:40.830Z,8.23
2018-01-06T20:30:08.323Z,6.57
2018-01-06T20:32:35.884Z,8.73
2018-01-06T20:35:03.377Z,8.10
2018-01-06T20:37:31.106Z,7.73
2018-01-06T20:39:59.002Z,7.70
2018-01-06T20:42:26.632Z,7.87
2018-01-06T20:44:54.904Z,11.47
2018-01-06T20:47:22.392Z,7.00
2018-01-06T20:49:50.234Z,6.80
2018-01-06T20:52:17.720Z,8.53
2018-01-06T20:54:45.230Z,6.43
2018-01-06T20:57:12.889Z,6.40
2018-01-06T20:59:40.380Z,7.47
2018-01-06T21:02:07.905Z,6.90
2018-01-06T21:04:35.566Z,6.67
2018-01-06T21:07:03.966Z,5.93
2018-01-06T21:09:31.685Z,6.83
2018-01-06T21:11:59.212Z,13.77
2018-01-06T21:14:26.951Z,10.00
2018-01-06T21:16:54.715Z,7.20
2018-01-06T21:19:23.787Z,8.40
2018-01-06T21:21:51.444Z,8.93
2018-01-06T21:24:18.952Z,5.83
2018-01-06T21:26:46.461Z,6.53
2018-01-06T21:29:13.967Z,5.53
2018-01-06T21:31:41.885Z,4.87
2018-01-06T21:34:09.783Z,4.30
2018-01-06T21:36:37.275Z,3.60
2018-01-06T21:39:05.823Z,4.37
2018-01-06T21:41:33.573Z,3.93
2018-01-06T21:44:01.473Z,3.53
2018-01-06T21:46:28.976Z,2.43
2018-01-06T21:48:56.548Z,2.70
2018-01-06T21:51:24.043Z,2.33
2018-01-06T21:53:51.533Z,1.90
2018-01-06T21:56:19.043Z,2.80
2018-01-06T21:58:46.695Z,5.33
2018-01-06T22:01:14.459Z,6.20
2018-01-06T22:03:42.216Z,2.87
2018-01-06T22:06:10.151Z,2.70
2018-01-06T22:08:37.755Z,2.43
2018-01-06T22:11:06.155Z,2.10
2018-01-06T22:13:33.880Z,1.93
2018-01-06T22:16:02.129Z,2.30
2018-01-06T22:18:29.681Z,1.20
2018-01-06T22:20:57.192Z,2.10
2018-01-06T22:23:24.696Z,2.07
2018-01-06T22:25:52.499Z,2.00
2018-01-06T22:28:20.138Z,1.20
2018-01-06T22:30:48.346Z,1.60
2018-01-06T22:33:15.843Z,2.17
2018-01-06T22:35:43.446Z,2.53
2018-01-06T22:38:11.211Z,1.37
2018-01-06T22:40:38.716Z,1.17
2018-01-06T22:43:06.447Z,1.30
2018-01-06T22:45:34.001Z,0.90
2018-01-06T22:48:01.653Z,1.10
2018-01-06T22:50:29.189Z,1.00
2018-01-06T22:52:56.800Z,2.30
2018-01-06T22:55:25.231Z,1.20
2018-01-06T22:57:52.724Z,1.43
2018-01-06T23:00:20.475Z,1.20
2018-01-06T23:02:48.486Z,1.77
2018-01-06T23:05:16.004Z,1.70
2018-01-06T23:07:43.899Z,1.37
2018-01-06T23:10:11.446Z,1.83
2018-01-06T23:12:38.979Z,2.00
2018-01-06T23:15:06.867Z,2.00
2018-01-06T23:17:34.815Z,3.07
2018-01-06T23:20:02.312Z,4.80
2018-01-06T23:22:30.036Z,2.27
2018-01-06T23:24:58.516Z,1.53
2018-01-06T23:27:26.156Z,1.23
2018-01-06T23:29:53.751Z,2.27
2018-01-06T23:32:21.403Z,1.40
2018-01-06T23:34:49.349Z,1.40
2018-01-06T23:37:17.238Z,1.30
2018-01-06T23:39:44.995Z,1.23
2018-01-06T23:42:12.508Z,1.43
2018-01-06T23:44:40.214Z,1.93
2018-01-06T23:47:08.212Z,1.80
2018-01-06T23:49:35.760Z,1.20
2018-01-06T23:52:04.816Z,1.27
2018-01-06T23:54:32.477Z,1.30
2018-01-06T23:57:00.363Z,1.50
2018-01-06T23:59:28.028Z,1.70
